AirNav   Air Wisconsin Up To $57,000 Bonus
 
 1033 users online  

KVCB Nut Tree Airport
Vacaville, California, USA

GOING TO VACAVILLE?


FAA INFORMATION EFFECTIVE 08 OCTOBER 2020

Location

FAA Identifier: VCB
Lat/Long: 38-22-41.6000N 121-57-40.3000W
38-22.693333N 121-57.671667W
38.3782222,-121.9611944
(estimated)
Elevation: 116.9 ft. / 35.6 m (surveyed)
Variation: 13E (2020)
From city: 2 miles NE of VACAVILLE, CA
Time zone: UTC -7 (UTC -8 during Standard Time)
Zip code: 95688

Airport Operations

Airport use: Open to the public
Control tower: no
ARTCC: OAKLAND CENTER
FSS: RANCHO MURIETA FLIGHT SERVICE STATION
NOTAMs facility: VCB (NOTAM-D service available)
Attendance: MON-FRI 1400-0100Z++
Wind indicator: lighted
Segmented circle: yes
Lights: AFT 2200 ACTVT MIRL & PARALLEL TWY LGTS RY 02/20; PAPI & REIL RYS 02 & 20 - CTAF.
Beacon: white-green (lighted land airport)
Operates sunset to sunrise.

Airport Communications

CTAF: 122.85
WX ASOS: 134.75 (707-448-1594)
TRAVIS APPROACH: 128.4
TRAVIS DEPARTURE: 128.4
WX AWOS-3 at EDU (12 nm NE): 119.025 (530-754-6839)
WX AWOS-3P at DWA (13 nm N): 125.775 (530-750-2759)
WX AWOS-AV at O88 (16 nm SE): 127.075 (707-374-5396)
WX ASOS at APC (18 nm SW): PHONE 707-252-7916

Nearby radio navigation aids

VOR radial/distance  VOR name  Freq  Var
SACr241/19.7SACRAMENTO VORTAC115.2017E
CCRr354/20.4CONCORD VOR/DME117.0017E
SGDr041/22.8SCAGGS ISLAND VORTAC112.1017E
MCCr219/31.4MC CLELLAN VOR/DME109.2017E

Airport Services

Fuel available: 100LL JET-A
Parking: tiedowns
Airframe service: MAJOR
Powerplant service: MAJOR
Bottled oxygen: NONE
Bulk oxygen: NONE

Runway Information

Runway 2/20

Dimensions: 4700 x 75 ft. / 1433 x 23 m
Surface: asphalt, in good condition
Weight bearing capacity: 
Single wheel: 30.0
Runway edge lights: medium intensity
RUNWAY 2  RUNWAY 20
Latitude: 38-22.372078N38-23.016052N
Longitude: 121-57.945188W121-57.398928W
Elevation: 115.8 ft.111.7 ft.
Traffic pattern: leftright
Runway heading: 021 magnetic, 034 true201 magnetic, 214 true
Markings: nonprecision, in good conditionnonprecision, in good condition
Visual slope indicator: 2-light PAPI on left (3.75 degrees glide path)2-light PAPI on left (3.75 degrees glide path)
Runway end identifier lights: yesyes
Touchdown point: yes, no lightsyes, no lights
Obstructions: 52 ft. tree, 1450 ft. from runway, 200 ft. right of centerline, 25:1 slope to clearnone

Airport Ownership and Management from official FAA records

Ownership: Publicly-owned
Owner: COUNTY OF SOLANO
580 TEXAS ST
FAIRFIELD, CA 94533
Phone 707-784-6100
Manager: 301 COUNTY AIRPORT ROAD
VACAVILLE, CA 95688
Phone 707-469-4600
OFFICE COORDINATOR: MARY GONZALES

Airport Operational Statistics

Aircraft based on the field: 93
Single engine airplanes: 88
Multi engine airplanes: 5
  • INCLUDES 4 GYROPLANES.
    
Aircraft operations: avg 278/day *
59% transient general aviation
39% local general aviation
1% air taxi
* for 12-month period ending 31 December 2018

Additional Remarks

NO TURNS TO XW BLW 800 FT MSL; RMN W OF INSTA HWY FOR RWY 20, NOISE SENSITIVE AREA W OF ARPT.
TWY LGTS ON PARL TWY ONLY.
RWY 02 CALM WIND RWY.
FOR CD CTC OAKLAND ARTCC AT 510-745-3380.

Instrument Procedures

NOTE: All procedures below are presented as PDF files. If you need a reader for these files, you should download the free Adobe Reader.

NOT FOR NAVIGATION. Please procure official charts for flight.
FAA instrument procedures published for use from 08 October 2020 at 0901Z to 05 November 2020 at 0900Z.

 
IAPs - Instrument Approach Procedures
RNAV (GPS) RWY 20   download (212KB)
VOR-A   download (176KB)
NOTE: Special Alternate Minimums apply   download (60KB)
 
Departure Procedures
SOKOY THREE   download (151KB)
NOTE: Special Take-Off Minimums/Departure Procedures apply   download (208KB)

Other nearby airports with instrument procedures:

KSUU - Travis Air Force Base (7 nm S)
KEDU - University Airport (12 nm NE)
KDWA - Yolo County Airport (13 nm N)
O88 - Rio Vista Municipal Airport (16 nm SE)
KAPC - Napa County Airport (18 nm SW)
O41 - Watts-Woodland Airport (18 nm N)
 
Loc | Ops | Rwys | IFR | FBO | Links
Com | Nav | Svcs | Stats | Notes

Sonoma Jet Center
 
Area around KVCB (Nut Tree Airport)
 
Road maps at: MapQuest Bing Google
 
Aerial photo
WARNING: Photo may not be current or correct
Aerial photo of KVCB (Nut Tree Airport)
Photo by Jan Sears
Photo taken 24-Feb-2019
looking west northwest at 3500 feet.

Do you have a better or more recent aerial photo of Nut Tree Airport that you would like to share? If so, please send us your photo.

 
Sectional chart

 
Airport diagram
CAUTION: Diagram may not be current
Diagram of KVCB (Nut Tree Airport)
 
Airport distance calculator
Flying to Nut Tree Airport? Find the distance to fly.

From to KVCB

Sunrise and sunset
Times for 31-Oct-2020
 Local
(UTC-7)
 Zulu
(UTC)
Morning civil twilight07:0814:08
Sunrise07:3514:35
Sunset18:0801:08
Evening civil twilight18:3501:35

Current date and time
Zulu (UTC)  31-Oct-2020 19:42:17
Local (UTC-7)  31-Oct-2020 12:42:17
 
METAR
KVCB 311853Z AUTO 02004KT 7SM CLR 22/03 A3013 RMK AO2 SLP203 T02220028
KSUU 
7nm S 
311858Z AUTO 03006KT 10SM CLR 23/04 A3012 RMK AO2 SLP206 T02300040 $
KEDU 
12nm NE 
311920Z AUTO 03004KT 10SM CLR 22/02 A3012 RMK AO1
KDWA 
13nm N 
311910Z AUTO VRB03KT 10SM CLR 22/03 A3013 RMK AO2
KAPC 
19nm SW 
311854Z 24004KT 10SM CLR 21/07 A3011 RMK AO2 SLP187 T02060072
TAF
KSUU 
7nm S 
311100Z 3111/0117 35009KT 9999 SKC QNH2998INS BECMG 3116/3117 VRB06KT 9999 SKC QNH3005INS TX30/3123Z TN04/3114Z
KAPC 
19nm SW 
311730Z 3118/0118 VRB03KT P6SM SKC FM312100 17007KT P6SM SKC FM010400 VRB03KT P6SM SKC
NOTAMs
Click for the latest NOTAMs
NOTAMs are issued by the DoD/FAA and will open in a separate window not controlled by AirNav.

 

 
 

FBO, Fuel Providers, and Aircraft Ground Support

  
 Business Name 
 
 Contact 
 
 Services / Description 
 
Fuel Prices
 
Comments
  
Solano County - Nut Tree Airport 707-469-4600
[web site]
[email]
Airport management, Aviation fuel, Aircraft parking (ramp or tiedown), Hangar leasing / sales, Passenger terminal and lounge, Rental cars on site, ...

More info about Solano County - Nut Tree Airport
independent
100LL Jet A
SS $3.55 $3.85 
 Updated 23-Oct-2020
 
   3 read write
SS=Self service
Update Fuel Prices
 

Would you like to see your business listed on this page?

 If your business provides an interesting product or service to pilots, flight crews, aircraft, or users of the Nut Tree Airport, you should consider listing it here.  To start the listing process, click on the button below
 
Add a business
 

Other Pages about Nut Tree Airport

www.flynuttree.com
Solano County
 
Update a link
 
Copyright © AirNav, LLC. All rights reserved. Privacy Policy  Contact